Hlavní strana
METAR-TAF:

METAR-TAF

Letiště :

Mezinárodní letiště Taba

Taba, Egypt

zeměpisná šířka: 29-35-57N, zeměpisná délka: 034-46-36E, výška: 749 m

METAR: chybějící

Čas: 04:58 (02:58 UTC)

Předpověď počasí

Zpráva byla vytvořena před 3 hodinami a 58 minutami, v 23:00 UTC
Předpověď platná od 06 v 00 UTC do 07 v 06 UTC
Severní vítr 6 kt s nárazy do 18 kt
Viditelnost: 6000 m
Dočasný
od 06 v 00 UTC do 06 v 12 UTC
Viditelnost: 3000 m
rozsáhlý prach
Změna
od 06 v 21 UTC do 06 v 23 UTC
vítr z různých směrů 3 kt
Viditelnost 10 km a více
Žádná oblačnost pod 1500 m, nevyskytují se cumulonimby.

TAF: HETB 052300Z 0600/0706 01006G18KT 6000 NSC TEMPO 0600/0612 3000 DU BECMG 0621/0623 VRB03KT CAVOK

Stav a předpovědi počasí z více než 4 000 letišť (zprávy METAR a TAF).

Červené a žluté tečky na mapě představují dostupné meteorologické stanice.

Když kurzor umístíte na tečku, zobrazí se název stanice.

Pak kliknutím zobrazíte stav a předpověď počasí.

Chcete-li změnit mapu, kliknutím na zelené tlačítko se znaménkem +mapu přiblížíte, kliknutím na zelené tlačítko se znaménkem – mapu oddálíte a kliknutím na zelené šipky přejdete na sousední mapy.


METAR-TAF: